createdAt,value
2018-02-13T00:00:00.271Z,2.08
2018-02-13T00:02:29.854Z,2.06
2018-02-13T00:04:58.014Z,2.06
2018-02-13T00:07:26.173Z,2.10
2018-02-13T00:09:55.119Z,2.12
2018-02-13T00:12:23.293Z,2.10
2018-02-13T00:14:51.469Z,2.10
2018-02-13T00:17:19.634Z,2.10
2018-02-13T00:19:47.789Z,2.08
2018-02-13T00:22:15.966Z,2.06
2018-02-13T00:24:44.132Z,2.06
2018-02-13T00:27:12.313Z,2.04
2018-02-13T00:29:40.478Z,2.03
2018-02-13T00:32:08.646Z,2.03
2018-02-13T00:34:37.594Z,2.03
2018-02-13T00:37:05.766Z,2.01
2018-02-13T00:39:33.947Z,2.04
2018-02-13T00:42:02.114Z,2.02
2018-02-13T00:44:30.280Z,2.07
2018-02-13T00:46:58.439Z,2.01
2018-02-13T00:49:26.621Z,1.99
2018-02-13T00:51:54.786Z,1.99
2018-02-13T00:54:22.938Z,1.94
2018-02-13T00:56:51.119Z,1.95
2018-02-13T00:59:19.290Z,1.92
2018-02-13T01:01:47.467Z,1.86
2018-02-13T01:04:15.629Z,1.87
2018-02-13T01:06:44.570Z,1.84
2018-02-13T01:09:12.726Z,1.86
2018-02-13T01:11:40.882Z,1.93
2018-02-13T01:14:09.053Z,1.88
2018-02-13T01:16:37.230Z,1.91
2018-02-13T01:19:05.387Z,1.95
2018-02-13T01:21:34.331Z,1.96
2018-02-13T01:24:02.511Z,1.94
2018-02-13T01:26:30.675Z,1.99
2018-02-13T01:28:58.836Z,1.99
2018-02-13T01:31:27.002Z,1.99
2018-02-13T01:33:55.183Z,1.98
2018-02-13T01:36:23.362Z,1.97
2018-02-13T01:38:51.553Z,2.05
2018-02-13T01:41:19.714Z,1.99
2018-02-13T01:43:47.874Z,2.05
2018-02-13T01:46:16.033Z,2.01
2018-02-13T01:48:44.974Z,1.98
2018-02-13T01:51:13.124Z,1.99
2018-02-13T01:53:41.284Z,2.04
2018-02-13T01:56:09.461Z,2.05
2018-02-13T01:58:37.621Z,2.01
2018-02-13T02:01:06.552Z,1.98
2018-02-13T02:03:34.725Z,1.98
2018-02-13T02:06:02.877Z,1.96
2018-02-13T02:08:31.055Z,2.02
2018-02-13T02:10:59.237Z,2.14
2018-02-13T02:13:27.398Z,2.09
2018-02-13T02:15:55.564Z,2.27
2018-02-13T02:18:23.737Z,2.12
2018-02-13T02:20:51.898Z,2.03
2018-02-13T02:23:20.845Z,2.03
2018-02-13T03:47:46.710Z,1.58
2018-02-13T03:50:14.865Z,1.62
2018-02-13T03:52:43.047Z,1.73
2018-02-13T03:55:11.237Z,1.73
2018-02-13T03:57:39.417Z,1.77
2018-02-13T04:00:07.597Z,1.77
2018-02-13T04:02:35.788Z,1.80
2018-02-13T04:05:04.021Z,1.79
2018-02-13T04:07:32.198Z,1.86
2018-02-13T04:10:00.353Z,1.84
2018-02-13T04:12:29.289Z,1.81
2018-02-13T04:14:57.458Z,1.83
2018-02-13T04:17:25.628Z,2.01
2018-02-13T04:19:53.787Z,1.94
2018-02-13T04:22:22.008Z,1.91
2018-02-13T04:24:50.165Z,1.85
2018-02-13T04:27:18.326Z,1.88
2018-02-13T04:29:46.488Z,1.87
2018-02-13T04:32:14.666Z,1.87
2018-02-13T04:34:42.848Z,1.95
2018-02-13T04:37:11.001Z,1.97
2018-02-13T04:39:39.241Z,1.93
2018-02-13T04:42:07.353Z,1.88
2018-02-13T04:44:35.526Z,1.86
2018-02-13T04:47:03.692Z,1.83
2018-02-13T04:49:32.622Z,1.84
2018-02-13T04:52:00.779Z,1.83
2018-02-13T04:54:28.964Z,1.84
2018-02-13T04:56:57.153Z,1.97
2018-02-13T04:59:25.325Z,1.91
2018-02-13T05:01:53.488Z,1.95
2018-02-13T05:04:21.660Z,1.96
2018-02-13T05:06:49.820Z,1.85
2018-02-13T05:09:17.985Z,1.85
2018-02-13T05:11:46.148Z,1.83
2018-02-13T05:14:15.076Z,1.92
2018-02-13T05:16:43.251Z,2.07
2018-02-13T05:19:11.858Z,2.13
2018-02-13T05:21:40.014Z,2.20
2018-02-13T05:24:08.197Z,2.26
2018-02-13T05:26:36.373Z,2.18
2018-02-13T05:29:04.545Z,2.14
2018-02-13T05:31:32.708Z,2.12
2018-02-13T05:34:00.867Z,2.07
2018-02-13T05:36:29.041Z,2.14
2018-02-13T05:38:57.230Z,2.06
2018-02-13T05:41:25.378Z,2.09
2018-02-13T05:43:54.319Z,2.01
2018-02-13T05:46:22.508Z,2.03
2018-02-13T05:48:50.670Z,1.97
2018-02-13T05:51:18.833Z,2.04
2018-02-13T05:53:46.998Z,2.00
2018-02-13T05:56:15.175Z,2.05
2018-02-13T05:58:43.357Z,2.01
2018-02-13T06:01:11.645Z,2.00
2018-02-13T06:03:39.829Z,2.00
2018-02-13T06:06:07.983Z,2.01
2018-02-13T06:08:36.157Z,2.00
2018-02-13T06:11:04.325Z,2.11
2018-02-13T06:13:32.491Z,2.12
2018-02-13T06:16:00.665Z,2.20
2018-02-13T06:18:28.830Z,2.18
2018-02-13T06:20:56.986Z,2.19
2018-02-13T06:23:25.938Z,2.15
2018-02-13T06:25:54.133Z,2.17
2018-02-13T06:28:22.326Z,2.21
2018-02-13T06:30:51.305Z,2.19
2018-02-13T06:33:20.250Z,2.15
2018-02-13T06:35:48.402Z,2.15
2018-02-13T06:38:16.562Z,2.20
2018-02-13T06:40:45.489Z,2.23
2018-02-13T06:43:13.680Z,2.36
2018-02-13T06:45:41.877Z,2.41
2018-02-13T06:48:10.050Z,2.42
2018-02-13T06:50:38.220Z,2.46
2018-02-13T06:53:06.397Z,2.46
2018-02-13T06:55:34.565Z,2.44
2018-02-13T06:58:02.730Z,2.45
2018-02-13T07:00:30.918Z,2.45
2018-02-13T07:02:59.103Z,2.54
2018-02-13T07:05:27.312Z,2.56
2018-02-13T07:07:56.259Z,2.55
2018-02-13T07:10:24.439Z,2.53
2018-02-13T07:12:52.609Z,2.53
2018-02-13T07:15:20.775Z,2.60
2018-02-13T07:17:49.016Z,2.65
2018-02-13T07:20:17.225Z,2.77
2018-02-13T07:22:45.406Z,2.74
2018-02-13T07:25:13.607Z,2.69
2018-02-13T07:27:41.789Z,2.69
2018-02-13T07:30:10.730Z,2.78
2018-02-13T07:32:38.901Z,2.87
2018-02-13T07:35:07.061Z,2.91
2018-02-13T07:37:35.226Z,2.96
2018-02-13T07:40:03.420Z,3.08
2018-02-13T07:42:31.575Z,2.99
2018-02-13T07:44:59.769Z,2.94
2018-02-13T07:47:27.939Z,2.99
2018-02-13T07:49:56.109Z,3.11
2018-02-13T07:52:24.289Z,3.12
2018-02-13T07:54:52.466Z,3.18
2018-02-13T07:57:20.638Z,3.24
2018-02-13T07:59:48.814Z,3.24
2018-02-13T08:02:17.034Z,3.37
2018-02-13T08:04:45.170Z,3.51
2018-02-13T08:07:13.362Z,3.56
2018-02-13T08:09:41.527Z,3.60
2018-02-13T08:12:09.686Z,3.73
2018-02-13T08:14:37.856Z,3.71
2018-02-13T08:17:06.031Z,3.79
2018-02-13T08:19:34.187Z,3.85
2018-02-13T08:22:02.392Z,3.93
2018-02-13T08:24:30.558Z,4.04
2018-02-13T08:26:58.721Z,4.13
2018-02-13T08:29:26.888Z,4.18
2018-02-13T08:31:55.061Z,4.11
2018-02-13T08:34:23.258Z,4.26
2018-02-13T08:36:51.437Z,4.21
2018-02-13T08:39:19.608Z,4.32
2018-02-13T08:41:47.810Z,4.50
2018-02-13T08:44:16.008Z,4.55
2018-02-13T08:46:44.936Z,4.64
2018-02-13T08:49:13.127Z,4.67
2018-02-13T08:51:41.338Z,4.76
2018-02-13T08:54:09.493Z,4.71
2018-02-13T08:56:37.653Z,4.55
2018-02-13T08:59:05.843Z,4.66
2018-02-13T09:01:34.047Z,4.55
2018-02-13T09:04:03.009Z,4.54
2018-02-13T09:06:31.170Z,4.63
2018-02-13T09:09:00.105Z,4.63
2018-02-13T09:11:29.037Z,4.66
2018-02-13T09:13:57.219Z,4.69
2018-02-13T09:16:25.379Z,4.65
2018-02-13T09:18:53.563Z,4.64
2018-02-13T09:21:21.746Z,4.62
2018-02-13T09:23:49.917Z,4.66
2018-02-13T09:26:18.069Z,4.52
2018-02-13T09:28:46.241Z,4.57
2018-02-13T09:31:14.416Z,4.67
2018-02-13T09:33:42.594Z,4.87
2018-02-13T09:36:10.758Z,4.94
2018-02-13T09:38:39.725Z,4.87
2018-02-13T09:41:07.909Z,4.94
2018-02-13T09:43:36.083Z,5.05
2018-02-13T09:46:05.081Z,5.20
2018-02-13T09:48:34.016Z,5.30
2018-02-13T09:51:02.213Z,5.28
2018-02-13T09:53:30.369Z,5.44
2018-02-13T09:55:58.532Z,5.50
2018-02-13T09:58:26.691Z,5.71
2018-02-13T10:00:54.863Z,5.63
2018-02-13T10:03:23.069Z,5.72
2018-02-13T10:05:51.268Z,5.89
2018-02-13T10:08:19.452Z,5.83
2018-02-13T10:10:47.620Z,5.80
2018-02-13T10:13:15.797Z,5.84
2018-02-13T10:15:43.978Z,5.94
2018-02-13T10:18:12.182Z,5.99
2018-02-13T10:20:40.392Z,5.96
2018-02-13T10:23:08.562Z,6.21
2018-02-13T10:25:36.724Z,6.22
2018-02-13T10:28:04.883Z,6.27
2018-02-13T10:30:33.060Z,6.43
2018-02-13T10:33:01.238Z,6.52
2018-02-13T10:35:29.458Z,6.85
2018-02-13T10:37:58.410Z,6.85
2018-02-13T10:40:26.612Z,6.96
2018-02-13T10:42:54.803Z,6.99
2018-02-13T10:45:23.009Z,7.27
2018-02-13T10:47:51.941Z,7.33
2018-02-13T10:50:20.123Z,7.49
2018-02-13T10:52:48.326Z,7.67
2018-02-13T10:55:16.547Z,7.94
2018-02-13T10:57:44.702Z,8.08
2018-02-13T11:00:13.662Z,8.26
2018-02-13T11:02:41.861Z,8.42
2018-02-13T11:05:16.200Z,8.39
2018-02-13T11:07:45.335Z,8.55
2018-02-13T11:10:13.495Z,8.54
2018-02-13T11:12:41.676Z,8.67
2018-02-13T11:15:09.869Z,8.76
2018-02-13T11:17:38.108Z,8.88
2018-02-13T11:20:06.291Z,8.92
2018-02-13T11:22:34.482Z,9.10
2018-02-13T11:25:02.675Z,9.21
2018-02-13T11:27:30.862Z,9.45
2018-02-13T11:30:00.548Z,9.59
2018-02-13T11:32:28.737Z,9.85
2018-02-13T11:34:56.938Z,10.02
2018-02-13T11:37:25.139Z,9.98
2018-02-13T11:39:53.309Z,9.86
2018-02-13T11:42:22.290Z,9.63
2018-02-13T11:44:51.227Z,9.55
2018-02-13T11:47:19.468Z,9.28
2018-02-13T11:49:48.451Z,9.24
2018-02-13T11:52:17.395Z,9.06
2018-02-13T11:54:45.658Z,8.74
2018-02-13T11:57:13.872Z,8.69
2018-02-13T11:59:42.091Z,8.62
2018-02-13T12:02:13.205Z,8.39
2018-02-13T12:04:41.423Z,8.27
2018-02-13T12:07:10.275Z,8.17
2018-02-13T12:09:43.093Z,7.90
2018-02-13T12:12:11.505Z,7.60
2018-02-13T12:14:39.754Z,7.75
2018-02-13T12:17:07.922Z,7.61
2018-02-13T12:19:40.646Z,7.74
2018-02-13T12:22:09.948Z,7.58
2018-02-13T12:24:38.129Z,7.45
2018-02-13T12:27:06.321Z,7.27
2018-02-13T12:29:40.688Z,7.14
2018-02-13T12:32:11.247Z,7.14
2018-02-13T12:34:39.510Z,6.97
2018-02-13T12:37:07.726Z,6.93
2018-02-13T12:39:42.561Z,6.89
2018-02-13T12:42:11.884Z,6.92
2018-02-13T12:44:40.266Z,6.87
2018-02-13T12:47:13.316Z,6.74
2018-02-13T12:49:41.551Z,6.69
2018-02-13T12:52:09.843Z,6.72
2018-02-13T12:54:40.608Z,6.53
2018-02-13T12:57:14.092Z,6.51
2018-02-13T12:59:42.569Z,6.35
2018-02-13T13:02:11.041Z,6.34
2018-02-13T13:04:44.295Z,6.37
2018-02-13T13:07:12.727Z,6.28
2018-02-13T13:09:40.916Z,6.28
2018-02-13T13:12:09.319Z,6.14
2018-02-13T13:14:39.079Z,6.31
2018-02-13T13:17:13.036Z,6.27
2018-02-13T13:19:42.260Z,6.09
2018-02-13T13:22:10.776Z,6.03
2018-02-13T13:24:42.717Z,6.10
2018-02-13T13:27:11.720Z,6.11
2018-02-13T13:29:40.194Z,6.09
2018-02-13T13:32:08.775Z,6.09
2018-02-13T13:34:37.115Z,5.91
2018-02-13T13:37:06.205Z,5.85
2018-02-13T13:39:35.276Z,5.82
2018-02-13T13:42:03.652Z,5.85
2018-02-13T13:44:31.890Z,5.96
2018-02-13T13:47:00.271Z,5.89
2018-02-13T13:49:28.590Z,5.84
2018-02-13T13:51:56.810Z,5.86
2018-02-13T13:54:25.171Z,5.92
2018-02-13T13:56:54.469Z,5.88
2018-02-13T13:59:23.544Z,5.85
2018-02-13T14:01:51.788Z,5.75
2018-02-13T14:04:20.063Z,5.80
2018-02-13T14:06:48.308Z,5.72
2018-02-13T14:09:17.257Z,5.75
2018-02-13T14:11:45.545Z,5.66
2018-02-13T14:14:13.764Z,5.59
2018-02-13T14:16:42.103Z,5.69
2018-02-13T14:19:10.345Z,5.67
2018-02-13T14:21:38.645Z,5.65
2018-02-13T14:24:06.942Z,5.60
2018-02-13T14:26:35.961Z,5.46
2018-02-13T14:29:04.261Z,5.53
2018-02-13T14:31:32.548Z,5.43
2018-02-13T14:34:00.860Z,5.49
2018-02-13T14:36:29.265Z,5.42
2018-02-13T14:38:58.283Z,5.45
2018-02-13T14:41:26.678Z,5.35
2018-02-13T14:43:54.919Z,5.42
2018-02-13T14:46:23.174Z,5.53
2018-02-13T14:48:51.500Z,5.46
2018-02-13T14:51:19.737Z,5.38
2018-02-13T14:53:48.777Z,5.39
2018-02-13T14:56:16.992Z,5.29
2018-02-13T14:58:45.274Z,5.28
2018-02-13T15:01:14.294Z,5.17
2018-02-13T15:03:42.607Z,5.15
2018-02-13T15:06:10.845Z,5.19
2018-02-13T15:08:39.823Z,5.18
2018-02-13T15:11:08.795Z,5.22
2018-02-13T15:13:37.023Z,5.05
2018-02-13T15:16:05.262Z,5.13
2018-02-13T15:18:35.637Z,5.08
2018-02-13T15:21:03.861Z,5.14
2018-02-13T15:23:32.079Z,5.12
2018-02-13T15:26:00.305Z,5.03
2018-02-13T15:28:28.603Z,5.06
2018-02-13T15:30:57.545Z,4.93
2018-02-13T15:33:25.763Z,4.88
2018-02-13T15:35:53.996Z,4.83
2018-02-13T15:38:22.207Z,4.79
2018-02-13T15:40:50.422Z,4.69
2018-02-13T15:43:18.704Z,4.63
2018-02-13T15:45:46.960Z,4.58
2018-02-13T15:48:15.902Z,4.60
2018-02-13T15:50:44.085Z,4.48
2018-02-13T15:53:12.337Z,4.40
2018-02-13T15:55:40.498Z,4.32
2018-02-13T15:58:08.697Z,4.23
2018-02-13T16:00:36.883Z,4.15
2018-02-13T16:03:05.051Z,4.01
2018-02-13T16:05:33.221Z,4.00
2018-02-13T16:08:01.415Z,3.90
2018-02-13T16:10:29.603Z,3.82
2018-02-13T16:12:57.795Z,3.73
2018-02-13T16:15:26.739Z,3.75
2018-02-13T16:17:54.929Z,3.66
2018-02-13T16:20:23.144Z,3.60
2018-02-13T16:22:52.078Z,3.53
2018-02-13T16:25:20.272Z,3.48
2018-02-13T16:27:48.467Z,3.47
2018-02-13T16:30:16.650Z,3.43
2018-02-13T16:32:45.606Z,3.39
2018-02-13T16:35:13.801Z,3.45
2018-02-13T16:37:41.992Z,3.42
2018-02-13T16:40:10.975Z,3.34
2018-02-13T16:42:39.180Z,3.28
2018-02-13T16:45:07.356Z,3.25
2018-02-13T16:47:35.549Z,3.23
2018-02-13T16:50:03.708Z,3.20
2018-02-13T16:52:31.905Z,3.17
2018-02-13T16:55:00.072Z,3.14
2018-02-13T16:57:28.258Z,3.10
2018-02-13T16:59:56.428Z,3.04
2018-02-13T17:02:24.591Z,3.00
2018-02-13T17:04:52.744Z,2.91
2018-02-13T17:07:20.922Z,2.97
2018-02-13T17:09:49.090Z,3.03
2018-02-13T17:12:18.034Z,2.95
2018-02-13T17:14:46.247Z,2.94
2018-02-13T17:17:15.187Z,2.93
2018-02-13T17:19:43.359Z,2.95
2018-02-13T17:22:11.528Z,2.97
2018-02-13T17:24:39.703Z,2.91
2018-02-13T17:27:07.922Z,2.93
2018-02-13T17:29:36.094Z,2.92
2018-02-13T17:32:04.300Z,2.95
2018-02-13T17:34:33.243Z,2.96
2018-02-13T17:37:01.423Z,2.95
2018-02-13T17:39:30.355Z,2.89
2018-02-13T17:41:58.536Z,2.84
2018-02-13T17:44:26.719Z,2.88
2018-02-13T17:46:54.897Z,2.80
2018-02-13T17:49:23.065Z,2.77
2018-02-13T17:51:51.260Z,2.87
2018-02-13T17:54:19.457Z,2.73
2018-02-13T17:56:48.402Z,2.78
2018-02-13T17:59:16.587Z,2.74
2018-02-13T18:01:44.789Z,2.64
2018-02-13T18:04:12.962Z,2.52
2018-02-13T18:06:44.077Z,2.45
2018-02-13T18:09:12.238Z,2.42
2018-02-13T18:11:41.179Z,2.36
2018-02-13T18:14:09.396Z,2.32
2018-02-13T18:16:38.342Z,2.25
2018-02-13T18:19:06.528Z,2.20
2018-02-13T18:21:34.691Z,2.17
2018-02-13T18:24:02.891Z,2.09
2018-02-13T18:26:31.061Z,2.05
2018-02-13T18:28:59.246Z,2.07
2018-02-13T18:31:27.442Z,2.07
2018-02-13T18:33:56.421Z,2.04
2018-02-13T18:36:24.663Z,2.00
2018-02-13T18:38:52.871Z,1.94
2018-02-13T18:41:21.834Z,1.84
2018-02-13T18:43:50.014Z,1.77
2018-02-13T18:46:18.209Z,1.70
2018-02-13T18:48:46.433Z,1.66
2018-02-13T18:51:14.602Z,1.66
2018-02-13T18:53:42.831Z,1.57
2018-02-13T18:56:11.029Z,1.51
2018-02-13T18:58:39.963Z,1.48
2018-02-13T19:01:08.142Z,1.41
2018-02-13T19:03:36.326Z,1.38
2018-02-13T20:28:02.228Z,-0.07
2018-02-13T20:30:30.425Z,-0.09
2018-02-13T20:32:59.393Z,-0.04
2018-02-13T20:35:27.613Z,-0.01
2018-02-13T20:37:55.808Z,0.04
2018-02-13T20:40:23.986Z,0.03
2018-02-13T20:42:52.186Z,0.05
2018-02-13T20:45:20.526Z,0.04
2018-02-13T20:47:48.729Z,0.06
2018-02-13T20:50:16.937Z,0.08
2018-02-13T20:52:45.129Z,0.07
2018-02-13T20:55:14.139Z,0.00
2018-02-13T20:57:42.331Z,0.06
2018-02-13T21:00:10.563Z,-0.02
2018-02-13T21:02:39.559Z,-0.03
2018-02-13T21:05:09.433Z,-0.07
2018-02-13T21:07:37.639Z,-0.08
2018-02-13T21:10:05.844Z,-0.14
2018-02-13T21:12:34.063Z,-0.15
2018-02-13T21:15:02.241Z,-0.14
2018-02-13T21:17:30.452Z,-0.13
2018-02-13T21:19:59.403Z,-0.15
2018-02-13T21:22:27.605Z,-0.19
2018-02-13T21:24:55.807Z,-0.21
2018-02-13T21:27:23.986Z,-0.19
2018-02-13T21:29:52.170Z,-0.21
2018-02-13T21:32:20.461Z,-0.25
2018-02-13T21:34:48.704Z,-0.11
2018-02-13T21:37:17.757Z,-0.06
2018-02-13T21:39:45.962Z,-0.06
2018-02-13T21:42:14.948Z,-0.06
2018-02-13T21:44:43.169Z,-0.01
2018-02-13T21:47:11.373Z,-0.13
2018-02-13T21:49:39.576Z,-0.13
2018-02-13T21:52:07.806Z,-0.19
2018-02-13T21:54:36.036Z,-0.24
2018-02-13T21:57:05.027Z,-0.29
2018-02-13T21:59:33.995Z,-0.30
2018-02-13T22:02:02.195Z,-0.30
2018-02-13T22:04:31.214Z,-0.29
2018-02-13T22:06:59.402Z,-0.33
2018-02-13T22:09:27.601Z,-0.34
2018-02-13T22:11:55.813Z,-0.30
2018-02-13T22:14:24.769Z,-0.28
2018-02-13T22:16:52.963Z,-0.27
2018-02-13T22:19:21.264Z,-0.24
2018-02-13T22:21:50.229Z,-0.26
2018-02-13T22:24:18.504Z,-0.33
2018-02-13T22:26:46.685Z,-0.27
2018-02-13T22:29:15.554Z,-0.32
2018-02-13T22:31:43.744Z,-0.34
2018-02-13T22:34:12.707Z,-0.33
2018-02-13T22:36:40.911Z,-0.29
2018-02-13T22:39:09.126Z,-0.33
2018-02-13T22:41:38.081Z,-0.43
2018-02-13T22:44:07.095Z,-0.38
2018-02-13T22:46:35.286Z,-0.46
2018-02-13T22:49:04.238Z,-0.45
2018-02-13T22:51:32.458Z,-0.35
2018-02-13T22:54:01.407Z,-0.36
2018-02-13T22:56:29.603Z,-0.39
2018-02-13T22:58:57.802Z,-0.43
2018-02-13T23:01:26.800Z,-0.52
2018-02-13T23:03:54.999Z,-0.59
2018-02-13T23:06:23.203Z,-0.61
2018-02-13T23:08:51.406Z,-0.64
2018-02-13T23:11:20.372Z,-0.70
2018-02-13T23:13:48.550Z,-0.68
2018-02-13T23:16:16.758Z,-0.62
2018-02-13T23:18:45.713Z,-0.68
2018-02-13T23:21:13.901Z,-0.70
2018-02-13T23:23:42.088Z,-0.70
2018-02-13T23:26:10.261Z,-0.73
2018-02-13T23:28:38.439Z,-0.80
2018-02-13T23:31:07.407Z,-0.83
2018-02-13T23:33:35.603Z,-0.83
2018-02-13T23:36:03.781Z,-0.79
2018-02-13T23:38:32.725Z,-0.86
2018-02-13T23:41:00.906Z,-0.90
2018-02-13T23:43:29.089Z,-0.85
2018-02-13T23:45:57.297Z,-0.85
2018-02-13T23:48:25.486Z,-0.87
2018-02-13T23:50:54.434Z,-0.86
2018-02-13T23:53:23.377Z,-0.83
2018-02-13T23:55:52.318Z,-0.88
2018-02-13T23:58:20.515Z,-0.94
